Time;durP1;ratioP1;P1;durP2;ratioP2;P2;SDS_P1;SDS_P2;PMS_P1;PMS_P2;Temp;Humidity;BMP_temperature;BMP_pressure;BME280_temperature;BME280_humidity;BME280_pressure;Samples;Min_cycle;Max_cycle;Signal;HPM_P1;HPM_P2
2022/03/18 00:03:00;;;;;;;7.07;1.52;;;6.40;1.00;;;;;;10473034;27;84910;-47
2022/03/18 00:08:01;;;;;;;4.78;1.48;;;6.40;1.00;;;;;;10491265;27;85933;-48
2022/03/18 00:13:02;;;;;;;5.22;1.67;;;6.40;1.00;;;;;;10491487;27;84959;-48
2022/03/18 00:18:02;;;;;;;4.57;1.98;;;6.40;1.00;;;;;;10484605;27;84780;-47
2022/03/18 00:23:03;;;;;;;7.95;1.65;;;6.40;1.00;;;;;;10449341;28;84125;-46
2022/03/18 00:28:04;;;;;;;5.70;1.67;;;6.40;1.00;;;;;;10453528;27;84801;-46
2022/03/18 00:33:05;;;;;;;4.28;1.77;;;6.30;1.00;;;;;;10490750;27;84562;-51
2022/03/18 00:38:06;;;;;;;5.35;1.92;;;6.20;1.00;;;;;;10483799;27;84976;-46
2022/03/18 00:43:06;;;;;;;5.47;1.90;;;6.10;1.00;;;;;;10472615;27;85375;-46
2022/03/18 00:53:27;;;;;;;5.25;1.85;;;6.10;1.00;;;;;;10489748;27;84926;-49
2022/03/18 00:58:27;;;;;;;6.20;1.65;;;6.00;1.00;;;;;;10490286;27;84918;-46
2022/03/18 01:03:28;;;;;;;9.25;2.15;;;6.00;1.00;;;;;;10458725;27;84221;-48
2022/03/18 01:08:29;;;;;;;3.65;1.60;;;6.00;1.00;;;;;;10414499;27;85853;-45
2022/03/18 01:13:29;;;;;;;5.93;1.67;;;6.00;1.00;;;;;;10490432;27;84012;-47
2022/03/18 01:18:30;;;;;;;4.45;1.67;;;6.00;1.00;;;;;;10488052;27;84780;-49
2022/03/18 01:23:31;;;;;;;6.43;1.70;;;5.90;1.00;;;;;;10448192;28;84667;-48
2022/03/18 01:28:31;;;;;;;2.65;1.58;;;5.90;1.00;;;;;;10448167;27;84423;-46
2022/03/18 01:33:34;;;;;;;6.28;1.70;;;5.80;1.00;;;;;;10494182;27;87720;-50
2022/03/18 01:38:34;;;;;;;3.63;1.50;;;5.80;1.00;;;;;;10494459;27;84827;-44
2022/03/18 01:43:47;;;;;;;4.95;1.67;;;5.70;1.00;;;;;;10437274;27;84903;-45
2022/03/18 01:48:48;;;;;;;6.10;1.70;;;5.70;1.00;;;;;;10458425;27;84285;-47
2022/03/18 01:54:44;;;;;;;5.40;2.30;;;5.70;1.00;;;;;;10481142;27;84058;-49
2022/03/18 01:59:13;;;;;;;7.05;2.28;;;5.70;1.00;;;;;;10490077;27;84334;-46
2022/03/18 02:04:14;;;;;;;5.32;1.58;;;5.60;1.00;;;;;;10454246;28;84934;-45
2022/03/18 02:09:15;;;;;;;2.58;1.67;;;5.60;1.00;;;;;;10459329;27;84259;-46
2022/03/18 02:14:38;;;;;;;5.70;1.40;;;5.60;1.00;;;;;;10476947;27;87059;-47
2022/03/18 02:19:41;;;;;;;2.72;1.38;;;5.50;1.00;;;;;;10466551;27;84149;-50
2022/03/18 02:24:43;;;;;;;4.13;1.60;;;5.40;1.00;;;;;;10452828;27;84769;-46
2022/03/18 02:29:44;;;;;;;5.40;2.05;;;5.40;1.00;;;;;;10444047;27;84364;-48
2022/03/18 02:34:45;;;;;;;3.28;1.77;;;5.40;1.00;;;;;;10494481;27;84105;-51
2022/03/18 02:39:45;;;;;;;7.03;2.30;;;5.40;1.00;;;;;;10467062;27;85330;-47
2022/03/18 02:44:46;;;;;;;3.50;1.27;;;5.30;1.00;;;;;;10454775;27;84114;-47
2022/03/18 02:49:46;;;;;;;6.60;1.80;;;5.30;1.00;;;;;;10452234;27;84952;-49
2022/03/18 02:54:47;;;;;;;2.13;1.50;;;5.20;1.00;;;;;;10494369;27;84133;-47
2022/03/18 02:59:48;;;;;;;4.07;1.63;;;5.20;1.00;;;;;;10492722;27;84161;-48
2022/03/18 03:10:08;;;;;;;7.28;2.35;;;5.10;1.00;;;;;;10454157;27;84916;-47
2022/03/18 03:15:08;;;;;;;4.97;1.77;;;5.00;1.00;;;;;;10475417;27;86686;-50
2022/03/18 03:20:10;;;;;;;4.85;1.95;;;4.90;1.00;;;;;;10439353;27;86022;-49
2022/03/18 03:25:11;;;;;;;5.93;2.28;;;4.90;1.00;;;;;;10475042;22;84813;-45
2022/03/18 03:30:12;;;;;;;3.97;1.77;;;4.80;1.00;;;;;;10451611;28;84214;-45
2022/03/18 03:35:15;;;;;;;3.17;1.52;;;4.70;1.00;;;;;;10450938;28;85903;-45
2022/03/18 03:40:15;;;;;;;7.00;2.08;;;4.60;1.00;;;;;;10433728;28;84949;-48
2022/03/18 03:45:16;;;;;;;2.17;1.27;;;4.60;1.00;;;;;;10408951;28;85031;-44
2022/03/18 03:50:17;;;;;;;6.95;1.73;;;4.60;1.00;;;;;;10425833;28;84918;-49
2022/03/18 03:55:18;;;;;;;3.70;1.85;;;4.50;1.00;;;;;;10450974;28;85152;-47
2022/03/18 04:00:19;;;;;;;3.85;1.83;;;4.40;1.00;;;;;;10432525;28;84933;-43
2022/03/18 04:05:19;;;;;;;2.95;1.65;;;4.30;1.00;;;;;;10404212;28;85026;-45
2022/03/18 04:10:20;;;;;;;4.25;1.65;;;4.30;1.00;;;;;;10426010;28;84067;-47
2022/03/18 04:15:21;;;;;;;4.63;1.90;;;4.30;1.00;;;;;;10405131;28;84362;-43
2022/03/18 04:20:23;;;;;;;4.45;1.85;;;4.20;1.00;;;;;;10412252;28;84439;-49
2022/03/18 04:25:23;;;;;;;3.78;2.05;;;4.20;1.00;;;;;;10399589;28;84273;-45
2022/03/18 04:30:24;;;;;;;4.93;2.15;;;4.10;1.00;;;;;;10439102;28;86073;-45
2022/03/18 04:35:26;;;;;;;4.75;1.83;;;4.10;1.00;;;;;;10450096;28;84149;-44
2022/03/18 04:40:27;;;;;;;7.78;2.45;;;4.10;1.00;;;;;;10418370;28;84372;-45
2022/03/18 04:45:28;;;;;;;4.97;2.40;;;4.10;1.00;;;;;;10408002;28;84918;-44
2022/03/18 04:50:30;;;;;;;7.68;2.67;;;4.00;1.00;;;;;;10412235;28;84329;-45
2022/03/18 04:55:30;;;;;;;4.43;2.13;;;3.90;1.00;;;;;;10448389;28;84279;-45
2022/03/18 05:00:31;;;;;;;3.45;1.83;;;3.90;1.00;;;;;;10444772;28;84221;-45
2022/03/18 05:05:32;;;;;;;8.77;2.40;;;3.90;1.00;;;;;;10406323;28;84164;-44
2022/03/18 05:10:33;;;;;;;3.72;1.95;;;3.90;1.00;;;;;;10415825;28;84802;-47
2022/03/18 05:15:34;;;;;;;4.53;1.95;;;3.80;1.00;;;;;;10435021;28;84117;-45
2022/03/18 05:20:34;;;;;;;7.05;2.28;;;3.90;1.00;;;;;;10435312;28;84904;-45
2022/03/18 05:25:35;;;;;;;4.78;2.08;;;3.90;1.00;;;;;;10432666;28;85749;-46
2022/03/18 05:30:38;;;;;;;6.70;2.30;;;3.90;1.00;;;;;;10431823;28;86015;-47
2022/03/18 05:35:39;;;;;;;4.65;2.13;;;3.90;1.00;;;;;;10433002;28;84846;-48
2022/03/18 05:40:39;;;;;;;5.10;2.15;;;3.90;1.00;;;;;;10433247;28;84413;-46
2022/03/18 05:45:40;;;;;;;7.25;1.85;;;3.90;1.00;;;;;;10434484;28;85184;-47
2022/03/18 05:50:40;;;;;;;5.97;2.80;;;3.90;1.00;;;;;;10427889;28;84970;-45
2022/03/18 06:01:00;;;;;;;3.80;2.17;;;3.90;1.00;;;;;;10432447;28;84128;-44
2022/03/18 06:06:03;;;;;;;3.78;2.38;;;3.90;1.00;;;;;;10432352;28;85875;-46
2022/03/18 06:16:23;;;;;;;4.68;2.42;;;4.10;1.00;;;;;;10432708;27;84272;-46
2022/03/18 06:21:24;;;;;;;5.57;2.88;;;4.10;1.00;;;;;;10425472;28;84912;-50
2022/03/18 06:26:25;;;;;;;7.45;3.88;;;4.10;1.00;;;;;;10417498;28;84964;-44
2022/03/18 06:31:25;;;;;;;8.52;3.10;;;4.30;1.00;;;;;;10432253;28;85955;-44
2022/03/18 06:36:27;;;;;;;4.18;2.70;;;4.80;1.00;;;;;;10406807;28;84687;-47
2022/03/18 06:41:27;;;;;;;3.15;2.33;;;5.30;1.00;;;;;;10413468;28;84298;-45
2022/03/18 06:46:28;;;;;;;8.13;3.22;;;5.90;1.00;;;;;;10422807;28;85014;-44
2022/03/18 06:51:29;;;;;;;4.93;3.10;;;6.40;1.00;;;;;;10427849;28;84814;-48
2022/03/18 06:56:30;;;;;;;6.65;2.95;;;6.90;1.00;;;;;;10414812;28;85960;-51
2022/03/18 07:01:31;;;;;;;6.93;2.92;;;7.30;99.90;;;;;;10424419;28;84971;-49
2022/03/18 07:06:32;;;;;;;5.32;3.10;;;7.80;99.90;;;;;;10423818;28;84040;-41
2022/03/18 07:11:32;;;;;;;7.38;3.40;;;8.30;1.00;;;;;;10400305;28;85591;-46
2022/03/18 07:21:52;;;;;;;8.32;3.10;;;8.90;1.00;;;;;;10399594;28;84208;-50
2022/03/18 07:26:53;;;;;;;3.22;2.50;;;9.30;1.00;;;;;;10451306;28;85837;-49
2022/03/18 07:31:55;;;;;;;10.40;3.08;;;9.70;1.00;;;;;;10437113;27;84077;-52
2022/03/18 07:36:55;;;;;;;11.18;3.20;;;10.40;99.90;;;;;;10410020;28;84470;-47
2022/03/18 07:41:56;;;;;;;5.38;2.72;;;10.90;1.00;;;;;;10411738;28;84110;-48
2022/03/18 07:46:57;;;;;;;8.05;3.15;;;11.10;99.90;;;;;;10453019;28;84389;-53
2022/03/18 07:51:57;;;;;;;4.80;2.75;;;11.40;99.90;;;;;;10453193;28;84757;-54
2022/03/18 07:56:58;;;;;;;6.47;2.45;;;12.10;1.00;;;;;;10439722;28;84213;-55
2022/03/18 08:02:00;;;;;;;6.13;2.22;;;12.50;99.90;;;;;;10410294;28;85964;-54
2022/03/18 08:07:02;;;;;;;4.13;2.20;;;12.60;1.00;;;;;;10410122;28;85382;-50
2022/03/18 08:12:04;;;;;;;6.43;3.10;;;12.90;1.00;;;;;;10408963;28;85965;-51
2022/03/18 08:17:05;;;;;;;3.85;2.20;;;13.40;1.00;;;;;;10451513;28;85812;-50
2022/03/18 08:22:07;;;;;;;6.05;2.22;;;13.60;1.00;;;;;;10451581;28;84105;-50
2022/03/18 08:27:07;;;;;;;5.20;1.70;;;14.20;99.90;;;;;;10431564;28;84239;-52
2022/03/18 08:32:12;;;;;;;4.55;2.05;;;15.10;1.00;;;;;;10411274;28;84209;-52
2022/03/18 08:37:13;;;;;;;2.13;1.30;;;15.90;1.00;;;;;;10391648;28;85098;-49
2022/03/18 08:42:15;;;;;;;4.25;1.98;;;16.40;1.00;;;;;;10427546;28;84063;-46
2022/03/18 08:47:16;;;;;;;5.38;1.85;;;16.70;99.90;;;;;;10457587;27;84683;-45
2022/03/18 08:52:17;;;;;;;3.33;1.23;;;17.10;1.00;;;;;;10456044;28;90618;-46
2022/03/18 08:57:17;;;;;;;8.18;1.90;;;16.40;1.00;;;;;;10418100;28;85979;-45
2022/03/18 09:02:18;;;;;;;4.68;1.23;;;16.70;1.00;;;;;;10414732;28;85716;-46
2022/03/18 09:07:19;;;;;;;5.30;1.48;;;17.00;1.00;;;;;;10413700;28;87281;-48
2022/03/18 09:12:19;;;;;;;3.60;1.50;;;17.30;1.00;;;;;;10431185;28;85223;-47
2022/03/18 09:17:21;;;;;;;4.78;1.50;;;17.20;1.00;;;;;;10455273;28;84429;-46
2022/03/18 09:22:21;;;;;;;7.05;2.00;;;17.70;99.90;;;;;;10476738;22;84362;-53
2022/03/18 09:27:22;;;;;;;3.28;1.40;;;17.70;99.90;;;;;;10452833;28;84916;-55
2022/03/18 09:32:23;;;;;;;4.63;1.55;;;18.00;1.00;;;;;;10447137;27;83970;-55
2022/03/18 09:37:23;;;;;;;3.42;1.50;;;18.30;1.00;;;;;;10414567;28;84795;-55
2022/03/18 09:42:24;;;;;;;3.42;1.27;;;18.40;99.90;;;;;;10415296;28;84368;-57
2022/03/18 09:47:26;;;;;;;2.95;1.40;;;18.60;99.90;;;;;;10440304;28;85079;-54
2022/03/18 09:52:27;;;;;;;3.45;1.13;;;18.80;99.90;;;;;;10454237;27;84162;-60
2022/03/18 09:57:27;;;;;;;2.63;1.25;;;18.60;1.00;;;;;;10411599;28;84173;-55
2022/03/18 10:02:30;;;;;;;2.78;1.13;;;18.50;1.00;;;;;;10431653;28;84251;-58
2022/03/18 10:07:31;;;;;;;5.47;1.30;;;18.70;1.00;;;;;;10455519;27;84748;-58
2022/03/18 10:12:36;;;;;;;2.75;0.95;;;19.20;1.00;;;;;;10456539;28;84884;-54
2022/03/18 10:17:40;;;;;;;1.73;1.00;;;19.40;1.00;;;;;;10453112;28;84179;-55
2022/03/18 10:22:41;;;;;;;2.45;1.13;;;19.10;1.00;;;;;;10456078;28;84227;-55
2022/03/18 10:27:48;;;;;;;2.13;1.25;;;19.70;1.00;;;;;;10409648;28;85634;-50
2022/03/18 10:32:49;;;;;;;6.88;2.47;;;20.10;1.00;;;;;;10447531;28;84436;-49
2022/03/18 10:37:52;;;;;;;3.63;1.52;;;19.80;1.00;;;;;;10451217;28;84283;-51
2022/03/18 10:43:01;;;;;;;4.45;1.25;;;19.40;1.00;;;;;;10453331;27;84098;-53
2022/03/18 10:48:13;;;;;;;2.15;1.23;;;19.40;99.90;;;;;;10443743;28;85138;-63
2022/03/18 10:53:13;;;;;;;2.85;1.17;;;19.50;99.90;;;;;;10411223;28;85476;-56
2022/03/18 10:58:16;;;;;;;1.95;1.08;;;20.10;99.90;;;;;;10443755;28;84160;-58
2022/03/18 11:03:17;;;;;;;4.50;1.17;;;20.20;99.90;;;;;;10453140;28;84867;-60
2022/03/18 11:08:25;;;;;;;4.38;1.20;;;20.70;99.90;;;;;;10414344;28;84953;-58
2022/03/18 11:13:28;;;;;;;4.15;1.50;;;20.50;99.90;;;;;;10412939;28;84117;-57
2022/03/18 11:18:31;;;;;;;3.08;1.40;;;21.20;99.90;;;;;;10419066;28;84793;-52
2022/03/18 11:23:32;;;;;;;3.38;1.40;;;21.00;99.90;;;;;;10456369;27;84782;-54
2022/03/18 11:28:33;;;;;;;3.00;1.42;;;21.00;99.90;;;;;;10456673;28;84233;-61
2022/03/18 11:33:37;;;;;;;2.00;1.17;;;21.40;99.90;;;;;;10454045;28;85068;-61
2022/03/18 11:38:59;;;;;;;2.95;1.20;;;20.80;99.90;;;;;;10410086;28;87795;-60
2022/03/18 11:44:01;;;;;;;3.03;1.23;;;20.50;1.00;;;;;;10420884;28;84093;-50
2022/03/18 11:49:06;;;;;;;3.35;1.38;;;20.40;1.00;;;;;;10452295;28;86069;-54
2022/03/18 11:54:16;;;;;;;2.90;1.50;;;20.90;1.00;;;;;;10451173;27;84256;-53
2022/03/18 11:59:28;;;;;;;3.70;1.63;;;20.90;23.80;;;;;;10414825;27;84142;-55
2022/03/18 12:04:42;;;;;;;5.20;1.55;;;21.00;1.00;;;;;;10430005;28;84819;-52
2022/03/18 12:09:56;;;;;;;5.53;1.58;;;21.00;1.00;;;;;;10411794;28;84786;-51
2022/03/18 12:15:05;;;;;;;3.85;1.45;;;21.00;1.00;;;;;;10409485;28;85444;-50
2022/03/18 12:20:06;;;;;;;3.88;1.58;;;20.80;1.00;;;;;;10418852;28;84965;-55
2022/03/18 12:25:08;;;;;;;2.50;1.25;;;20.60;1.00;;;;;;10430344;27;84753;-53
2022/03/18 12:30:11;;;;;;;2.85;1.30;;;20.50;1.00;;;;;;10427737;27;84208;-50
2022/03/18 12:35:12;;;;;;;4.00;1.38;;;20.30;1.00;;;;;;10401912;28;84225;-56
2022/03/18 12:40:16;;;;;;;2.97;1.20;;;21.10;1.00;;;;;;10368540;28;85195;-53
2022/03/18 12:45:34;;;;;;;3.97;1.20;;;20.80;1.00;;;;;;10400769;28;84899;-49
2022/03/18 12:50:42;;;;;;;2.92;1.30;;;21.40;1.00;;;;;;10409101;28;84325;-54
2022/03/18 12:55:45;;;;;;;2.67;1.30;;;20.90;1.00;;;;;;10417330;28;84961;-50
2022/03/18 13:01:01;;;;;;;2.90;1.45;;;20.60;1.00;;;;;;10428367;28;86965;-56
2022/03/18 13:06:07;;;;;;;4.50;1.58;;;20.00;1.00;;;;;;10431526;28;84771;-57
2022/03/18 13:11:07;;;;;;;2.97;1.75;;;20.50;1.00;;;;;;10422404;28;86940;-53
2022/03/18 13:16:09;;;;;;;3.13;1.30;;;20.80;1.00;;;;;;10420532;28;84796;-50
2022/03/18 13:21:09;;;;;;;1.92;1.17;;;21.00;1.00;;;;;;10432001;28;84749;-53
2022/03/18 13:26:12;;;;;;;1.52;1.10;;;20.70;1.00;;;;;;10431595;27;84130;-54
2022/03/18 13:36:37;;;;;;;4.90;1.13;;;20.10;1.00;;;;;;10433284;28;84485;-49
2022/03/18 13:41:48;;;;;;;3.05;1.10;;;20.10;1.00;;;;;;10433352;28;85002;-57
2022/03/18 13:46:59;;;;;;;4.30;1.45;;;20.20;1.00;;;;;;10423270;28;85140;-52
2022/03/18 13:52:08;;;;;;;2.70;1.08;;;20.40;1.00;;;;;;10430624;28;85566;-51
2022/03/18 13:57:09;;;;;;;3.20;1.52;;;20.40;1.00;;;;;;10456063;28;84995;-54
2022/03/18 14:02:09;;;;;;;2.05;1.20;;;20.20;1.00;;;;;;10455510;28;84856;-54
2022/03/18 14:07:11;;;;;;;3.80;1.55;;;19.50;1.00;;;;;;10412094;28;84468;-55
2022/03/18 14:12:13;;;;;;;2.40;1.20;;;18.80;1.00;;;;;;10412329;28;85429;-52
2022/03/18 14:17:14;;;;;;;3.58;1.35;;;18.20;1.00;;;;;;10421187;28;85223;-51
2022/03/18 14:22:39;;;;;;;1.65;1.10;;;17.70;1.00;;;;;;10445875;27;84862;-49
2022/03/18 14:27:43;;;;;;;2.38;1.20;;;18.20;1.00;;;;;;10415543;28;84823;-51
2022/03/18 14:32:48;;;;;;;3.42;1.30;;;18.60;1.00;;;;;;10428901;28;84886;-56
2022/03/18 14:37:50;;;;;;;2.58;1.08;;;18.90;1.00;;;;;;10442562;28;84834;-57
2022/03/18 14:42:51;;;;;;;2.15;1.20;;;19.50;1.00;;;;;;10411714;28;86496;-62
2022/03/18 14:47:51;;;;;;;2.22;1.17;;;19.40;1.00;;;;;;10413710;28;84839;-63
2022/03/18 14:52:52;;;;;;;3.70;1.40;;;19.20;1.00;;;;;;10412649;28;84771;-56
2022/03/18 14:57:53;;;;;;;2.65;1.13;;;19.00;1.00;;;;;;10437119;28;84041;-56
2022/03/18 15:02:54;;;;;;;1.95;1.10;;;19.00;1.00;;;;;;10454747;27;84032;-57
2022/03/18 15:07:55;;;;;;;2.95;1.52;;;18.80;1.00;;;;;;10436228;28;84165;-53
2022/03/18 15:12:55;;;;;;;2.25;1.00;;;18.50;1.00;;;;;;10413735;28;84854;-54
2022/03/18 15:17:56;;;;;;;2.33;1.20;;;17.90;99.90;;;;;;10408341;28;84835;-56
2022/03/18 15:22:59;;;;;;;1.73;1.13;;;17.10;99.90;;;;;;10403858;28;84645;-66
2022/03/18 15:27:59;;;;;;;1.63;1.05;;;16.30;99.90;;;;;;10413281;28;84261;-58
2022/03/18 15:33:00;;;;;;;1.95;1.20;;;15.90;1.00;;;;;;10409565;28;84914;-59
2022/03/18 15:38:01;;;;;;;2.28;1.10;;;15.40;1.00;;;;;;10417544;28;87234;-60
2022/03/18 15:43:03;;;;;;;3.70;1.30;;;15.00;1.00;;;;;;10405996;28;84555;-62
2022/03/18 15:48:05;;;;;;;2.25;1.30;;;15.00;1.00;;;;;;10409446;28;85345;-57
2022/03/18 15:53:05;;;;;;;2.35;1.30;;;14.80;99.90;;;;;;10405140;28;86089;-61
2022/03/18 15:58:07;;;;;;;1.83;0.93;;;14.60;99.90;;;;;;10406993;28;85957;-57
2022/03/18 16:03:08;;;;;;;2.22;1.30;;;14.50;99.90;;;;;;10374090;28;86004;-60
2022/03/18 16:08:11;;;;;;;3.03;1.08;;;14.40;99.90;;;;;;10403674;28;85703;-60
2022/03/18 16:13:11;;;;;;;2.00;1.35;;;14.20;1.00;;;;;;10403605;28;84258;-59
2022/03/18 16:18:12;;;;;;;1.90;1.35;;;14.20;1.00;;;;;;10413504;28;85926;-59
2022/03/18 16:23:13;;;;;;;2.10;1.40;;;14.00;1.00;;;;;;10408065;28;84641;-59
2022/03/18 16:28:15;;;;;;;2.63;1.25;;;14.00;1.00;;;;;;10406144;28;85837;-59
2022/03/18 16:33:17;;;;;;;5.28;1.48;;;13.90;99.90;;;;;;10405210;28;86604;-60
2022/03/18 16:38:17;;;;;;;3.38;1.42;;;13.80;99.90;;;;;;10404848;28;87113;-61
2022/03/18 16:43:18;;;;;;;3.40;1.73;;;13.80;99.90;;;;;;10401407;28;84751;-61
2022/03/18 16:53:38;;;;;;;2.58;1.35;;;13.50;1.00;;;;;;10402230;28;84142;-60
2022/03/18 16:58:39;;;;;;;2.08;1.20;;;13.50;1.00;;;;;;10420986;28;84221;-61
2022/03/18 17:03:41;;;;;;;3.67;1.90;;;13.40;99.90;;;;;;10432632;28;84904;-60
2022/03/18 17:08:42;;;;;;;3.92;1.58;;;13.40;99.90;;;;;;10434052;28;85021;-58
2022/03/18 17:13:42;;;;;;;1.88;1.42;;;13.30;1.00;;;;;;10432857;28;84153;-61
2022/03/18 17:18:47;;;;;;;4.88;1.65;;;13.20;1.00;;;;;;10426554;28;84812;-60
2022/03/18 17:23:48;;;;;;;3.88;1.27;;;13.10;99.90;;;;;;10412759;28;85653;-58
2022/03/18 17:28:49;;;;;;;2.75;1.50;;;13.00;1.00;;;;;;10430662;27;84278;-62
2022/03/18 17:33:49;;;;;;;12.18;4.72;;;12.90;1.00;;;;;;10418181;28;84758;-53
2022/03/18 17:38:52;;;;;;;6.40;2.03;;;12.80;1.00;;;;;;10418790;28;84916;-58
2022/03/18 17:43:52;;;;;;;3.90;1.70;;;12.70;99.90;;;;;;10404280;28;84187;-53
2022/03/18 17:48:53;;;;;;;4.25;2.05;;;12.60;1.00;;;;;;10408861;28;84727;-57
2022/03/18 17:53:56;;;;;;;4.03;1.58;;;12.50;1.00;;;;;;10411917;28;84105;-58
2022/03/18 17:58:57;;;;;;;4.93;1.77;;;12.40;99.90;;;;;;10410411;28;86050;-51
2022/03/18 18:03:58;;;;;;;3.88;1.85;;;12.30;1.00;;;;;;10400725;28;84921;-54
2022/03/18 18:09:00;;;;;;;3.75;1.85;;;12.30;1.00;;;;;;10389252;28;84239;-50
2022/03/18 18:14:03;;;;;;;5.88;1.80;;;12.20;1.00;;;;;;10382110;28;84917;-51
2022/03/18 18:24:29;;;;;;;3.53;1.83;;;12.10;99.90;;;;;;10411054;28;85071;-54
2022/03/18 18:29:30;;;;;;;5.00;2.20;;;11.90;1.00;;;;;;10407501;28;84104;-55
2022/03/18 18:34:31;;;;;;;5.05;2.22;;;11.90;1.00;;;;;;10429624;28;84372;-51
2022/03/18 18:39:32;;;;;;;4.60;1.80;;;11.80;1.00;;;;;;10452157;28;85483;-59
2022/03/18 18:44:35;;;;;;;2.88;1.73;;;11.80;1.00;;;;;;10423320;28;86665;-58
2022/03/18 18:49:39;;;;;;;3.28;2.42;;;11.70;39.10;;;;;;10402057;28;84148;-58
2022/03/18 18:54:44;;;;;;;8.90;3.65;;;11.60;99.90;;;;;;10407229;28;84986;-56
2022/03/18 18:59:46;;;;;;;6.13;3.20;;;11.50;99.90;;;;;;10449372;28;86031;-61
2022/03/18 19:04:47;;;;;;;22.70;7.90;;;11.50;99.90;;;;;;10452911;27;84269;-58
2022/03/18 19:09:48;;;;;;;7.50;2.63;;;11.40;1.00;;;;;;10450249;28;85505;-54
2022/03/18 19:14:49;;;;;;;3.47;2.42;;;11.30;1.00;;;;;;10421796;28;85211;-56
2022/03/18 19:19:51;;;;;;;3.88;2.35;;;11.30;1.00;;;;;;10409412;28;84672;-60
2022/03/18 19:24:52;;;;;;;7.32;2.28;;;11.20;1.00;;;;;;10412513;28;85183;-59
2022/03/18 19:29:53;;;;;;;6.43;2.38;;;11.10;1.00;;;;;;10415409;28;85277;-56
2022/03/18 19:34:54;;;;;;;4.57;2.47;;;11.10;1.00;;;;;;10405913;28;84061;-58
2022/03/18 19:39:55;;;;;;;4.93;2.60;;;11.00;1.00;;;;;;10413579;28;84632;-57
2022/03/18 19:44:56;;;;;;;4.35;2.50;;;10.90;1.00;;;;;;10409136;28;85194;-50
2022/03/18 19:49:56;;;;;;;6.22;2.85;;;10.90;1.00;;;;;;10416801;28;84204;-59
2022/03/18 19:54:57;;;;;;;20.92;8.25;;;10.80;31.30;;;;;;10407597;28;84120;-52
2022/03/18 20:05:18;;;;;;;4.88;2.15;;;10.80;99.90;;;;;;10449462;28;84843;-56
2022/03/18 20:10:18;;;;;;;6.30;2.72;;;10.70;99.90;;;;;;10451198;28;84117;-51
2022/03/18 20:15:19;;;;;;;3.70;2.35;;;10.70;99.90;;;;;;10451221;28;84506;-50
2022/03/18 20:20:20;;;;;;;6.85;2.90;;;10.50;99.90;;;;;;10450080;27;84899;-61
2022/03/18 20:25:21;;;;;;;5.85;2.70;;;10.50;99.90;;;;;;10448973;28;84969;-51
2022/03/18 20:30:22;;;;;;;5.50;2.38;;;10.50;1.00;;;;;;10423918;27;84338;-53
2022/03/18 20:35:23;;;;;;;7.90;3.25;;;10.40;1.00;;;;;;10410247;28;86726;-53
2022/03/18 20:40:23;;;;;;;6.95;3.25;;;10.30;1.00;;;;;;10399299;28;85936;-56
2022/03/18 20:45:25;;;;;;;7.28;3.50;;;10.20;1.00;;;;;;10407355;28;85612;-50
2022/03/18 20:50:27;;;;;;;7.65;3.60;;;10.20;1.00;;;;;;10400037;28;85031;-54
2022/03/18 20:55:28;;;;;;;5.43;3.05;;;10.10;1.00;;;;;;10401608;28;86057;-57
2022/03/18 21:00:29;;;;;;;8.80;3.38;;;10.00;1.00;;;;;;10416436;28;84259;-51
2022/03/18 21:05:29;;;;;;;6.35;3.28;;;10.00;1.00;;;;;;10423094;28;84145;-50
2022/03/18 21:10:34;;;;;;;10.15;3.28;;;10.00;1.00;;;;;;10415370;28;84667;-53
2022/03/18 21:15:36;;;;;;;7.57;3.42;;;9.90;1.00;;;;;;10425420;28;84091;-55
2022/03/18 21:20:37;;;;;;;7.18;2.85;;;9.90;1.00;;;;;;10419395;28;84481;-49
2022/03/18 21:30:57;;;;;;;6.10;3.42;;;9.80;1.00;;;;;;10418358;28;85028;-50
2022/03/18 21:35:58;;;;;;;8.93;3.83;;;9.80;1.00;;;;;;10414057;28;84989;-57
2022/03/18 21:40:58;;;;;;;6.38;3.55;;;9.80;1.00;;;;;;10419754;28;85451;-50
2022/03/18 21:45:59;;;;;;;12.10;3.47;;;9.70;6.20;;;;;;10416380;28;85207;-52
2022/03/18 21:51:00;;;;;;;6.63;3.63;;;9.60;45.20;;;;;;10411219;28;87446;-53
2022/03/18 21:56:00;;;;;;;10.15;3.70;;;9.60;99.90;;;;;;10433444;22;84214;-52
2022/03/18 22:01:01;;;;;;;8.00;4.00;;;9.50;99.90;;;;;;10487133;27;86258;-48
2022/03/18 22:06:02;;;;;;;6.80;3.78;;;9.50;99.90;;;;;;10476300;27;84688;-52
2022/03/18 22:11:02;;;;;;;7.35;3.60;;;9.40;99.90;;;;;;10456798;27;86045;-50
2022/03/18 22:16:03;;;;;;;6.28;3.53;;;9.40;99.90;;;;;;10453642;27;85980;-46
2022/03/18 22:21:04;;;;;;;7.22;3.85;;;9.30;99.90;;;;;;10461705;27;84754;-49
2022/03/18 22:26:05;;;;;;;7.72;4.05;;;9.20;99.90;;;;;;10475108;27;84621;-48
2022/03/18 22:31:05;;;;;;;17.75;6.95;;;9.20;99.90;;;;;;10471568;27;84113;-46
2022/03/18 22:36:06;;;;;;;6.85;4.18;;;9.10;99.90;;;;;;10468783;27;84983;-45
2022/03/18 22:41:07;;;;;;;8.38;4.68;;;9.10;99.90;;;;;;10435173;27;85012;-49
2022/03/18 22:46:07;;;;;;;8.43;4.80;;;9.00;1.00;;;;;;10460133;27;84965;-46
2022/03/18 22:51:08;;;;;;;8.50;4.20;;;9.00;1.00;;;;;;10452075;28;91231;-46
2022/03/18 22:56:10;;;;;;;7.18;4.47;;;8.80;1.00;;;;;;10467504;27;84252;-49
2022/03/18 23:01:11;;;;;;;7.18;4.18;;;8.80;1.00;;;;;;10470180;27;85334;-47
2022/03/18 23:06:11;;;;;;;9.20;4.32;;;8.80;1.00;;;;;;10494518;27;83969;-47
2022/03/18 23:16:33;;;;;;;7.88;4.70;;;8.70;1.00;;;;;;10481354;27;84219;-44
2022/03/18 23:21:34;;;;;;;7.50;3.95;;;8.70;1.00;;;;;;10495351;27;84097;-47
2022/03/18 23:26:34;;;;;;;7.82;4.05;;;8.60;1.00;;;;;;10494288;27;84005;-46
2022/03/18 23:31:36;;;;;;;7.63;4.47;;;8.60;1.00;;;;;;10470345;27;84774;-50
2022/03/18 23:36:37;;;;;;;9.73;4.40;;;8.50;1.00;;;;;;10464594;27;84909;-47
2022/03/18 23:41:37;;;;;;;10.40;4.63;;;8.40;1.00;;;;;;10474696;27;84155;-43
2022/03/18 23:46:38;;;;;;;8.27;4.60;;;8.40;1.00;;;;;;10466134;27;84580;-45
2022/03/18 23:51:39;;;;;;;6.95;4.35;;;8.30;1.00;;;;;;10485436;27;84197;-47
2022/03/18 23:56:40;;;;;;;10.57;4.47;;;8.30;1.00;;;;;;10445519;27;85075;-46
